createdAt,value
2018-02-14T00:00:31.583Z,15.75
2018-02-14T00:03:00.723Z,17.98
2018-02-14T00:05:29.906Z,17.45
2018-02-14T00:07:59.058Z,22.37
2018-02-14T00:10:28.241Z,20.15
2018-02-14T00:12:57.666Z,24.67
2018-02-14T00:15:28.056Z,17.70
2018-02-14T00:17:57.231Z,21.70
2018-02-14T00:20:26.396Z,19.10
2018-02-14T00:22:55.568Z,17.83
2018-02-14T00:25:24.706Z,15.35
2018-02-14T00:27:53.928Z,22.98
2018-02-14T00:30:23.094Z,20.40
2018-02-14T00:32:52.258Z,16.52
2018-02-14T00:35:22.313Z,16.95
2018-02-14T00:37:51.493Z,17.30
2018-02-14T00:40:20.653Z,16.20
2018-02-14T00:42:49.835Z,16.05
2018-02-14T00:45:19.003Z,13.90
2018-02-14T00:47:48.178Z,24.37
2018-02-14T00:50:17.384Z,19.83
2018-02-14T00:55:21.771Z,28.65
2018-02-14T00:57:50.939Z,26.40
2018-02-14T01:00:21.034Z,19.67
2018-02-14T01:02:50.202Z,18.55
2018-02-14T01:05:19.362Z,17.05
2018-02-14T01:10:23.739Z,24.15
2018-02-14T01:12:52.902Z,17.95
2018-02-14T01:17:57.312Z,22.50
2018-02-14T01:20:32.112Z,18.85
2018-02-14T01:23:01.285Z,15.30
2018-02-14T01:25:30.482Z,14.20
2018-02-14T01:27:59.640Z,14.23
2018-02-14T01:30:28.850Z,13.65
2018-02-14T01:32:58.027Z,14.40
2018-02-14T01:35:28.038Z,17.15
2018-02-14T01:37:57.222Z,14.40
2018-02-14T01:40:26.400Z,14.40
2018-02-14T01:42:56.472Z,15.20
2018-02-14T01:45:25.614Z,14.98
2018-02-14T01:47:54.784Z,23.42
2018-02-14T01:50:29.678Z,26.37
2018-02-14T01:52:58.880Z,25.33
2018-02-14T01:55:28.038Z,20.27
2018-02-14T01:57:57.504Z,18.00
2018-02-14T02:00:26.686Z,16.95
2018-02-14T02:02:55.847Z,14.10
2018-02-14T02:05:25.017Z,15.75
2018-02-14T02:07:54.173Z,15.88
2018-02-14T02:10:28.154Z,16.67
2018-02-14T02:12:57.471Z,16.52
2018-02-14T02:15:26.641Z,15.95
2018-02-14T02:17:55.783Z,16.50
2018-02-14T02:20:24.988Z,16.60
2018-02-14T02:22:54.118Z,14.40
2018-02-14T02:25:23.303Z,15.50
2018-02-14T02:27:52.440Z,16.58
2018-02-14T02:30:21.603Z,15.02
2018-02-14T02:32:50.795Z,14.27
2018-02-14T02:35:19.930Z,15.63
2018-02-14T02:37:49.117Z,15.13
2018-02-14T02:40:30.943Z,13.62
2018-02-14T02:43:00.100Z,16.30
2018-02-14T02:45:29.248Z,20.17
2018-02-14T02:47:58.474Z,16.52
2018-02-14T02:50:27.645Z,20.37
2018-02-14T02:52:56.817Z,18.77
2018-02-14T02:55:25.949Z,16.37
2018-02-14T02:57:55.121Z,17.23
2018-02-14T03:00:24.294Z,14.25
2018-02-14T03:02:53.457Z,16.35
2018-02-14T03:05:22.614Z,16.25
2018-02-14T03:10:26.974Z,21.33
2018-02-14T03:12:56.155Z,19.95
2018-02-14T03:20:35.754Z,24.10
2018-02-14T03:23:05.272Z,21.10
2018-02-14T03:25:34.582Z,20.67
2018-02-14T03:28:03.766Z,17.45
2018-02-14T03:30:32.947Z,18.23
2018-02-14T03:33:02.106Z,15.98
2018-02-14T03:35:31.239Z,14.95
2018-02-14T03:38:00.397Z,15.52
2018-02-14T03:40:29.558Z,16.62
2018-02-14T03:45:33.967Z,23.90
2018-02-14T03:48:03.137Z,19.08
2018-02-14T03:50:32.295Z,17.70
2018-02-14T03:53:01.455Z,21.25
2018-02-14T03:55:30.617Z,17.80
2018-02-14T03:57:59.809Z,22.60
2018-02-14T04:08:14.644Z,23.00
2018-02-14T04:10:43.810Z,17.73
2018-02-14T04:15:48.187Z,19.00
2018-02-14T04:18:17.382Z,16.45
2018-02-14T04:20:46.558Z,15.05
2018-02-14T04:23:15.722Z,18.42
2018-02-14T04:25:44.890Z,18.75
2018-02-14T04:28:17.331Z,16.00
2018-02-14T04:30:47.538Z,16.02
2018-02-14T04:33:16.678Z,15.65
2018-02-14T04:35:45.846Z,14.68
2018-02-14T04:38:15.023Z,14.48
2018-02-14T04:40:44.182Z,13.52
2018-02-14T04:43:13.365Z,21.20
2018-02-14T04:45:42.534Z,17.77
2018-02-14T04:48:11.835Z,14.80
2018-02-14T04:50:41.003Z,15.10
2018-02-14T04:55:45.341Z,22.15
2018-02-14T04:58:16.249Z,16.77
2018-02-14T05:00:46.492Z,16.27
2018-02-14T05:05:50.866Z,22.00
2018-02-14T05:08:20.062Z,17.37
2018-02-14T05:10:49.238Z,17.45
2018-02-14T05:13:18.399Z,14.38
2018-02-14T05:15:47.543Z,14.87
2018-02-14T05:20:51.938Z,19.30
2018-02-14T05:23:21.094Z,17.92
2018-02-14T05:25:50.333Z,20.58
2018-02-14T05:28:19.496Z,17.75
2018-02-14T05:30:48.679Z,21.17
2018-02-14T05:33:17.854Z,19.00
2018-02-14T05:35:47.024Z,17.45
2018-02-14T05:38:16.195Z,17.50
2018-02-14T05:40:45.424Z,16.35
2018-02-14T05:43:14.611Z,15.55
2018-02-14T05:45:43.815Z,21.92
2018-02-14T05:48:12.964Z,20.42
2018-02-14T05:50:42.169Z,16.40
2018-02-14T05:53:11.363Z,15.02
2018-02-14T05:55:40.515Z,17.55
2018-02-14T06:00:44.891Z,21.70
2018-02-14T06:03:14.056Z,17.60
2018-02-14T06:05:43.214Z,21.55
2018-02-14T06:08:12.351Z,16.92
2018-02-14T06:13:17.216Z,21.55
2018-02-14T06:15:46.407Z,23.25
2018-02-14T06:18:15.546Z,18.92
2018-02-14T06:20:44.725Z,17.10
2018-02-14T06:28:24.304Z,23.95
2018-02-14T06:30:53.499Z,18.30
2018-02-14T06:33:22.702Z,17.73
2018-02-14T06:35:51.884Z,16.98
2018-02-14T06:38:21.073Z,15.95
2018-02-14T06:40:50.245Z,23.58
2018-02-14T06:43:19.410Z,18.33
2018-02-14T06:45:48.587Z,18.15
2018-02-14T06:48:17.745Z,15.40
2018-02-14T06:50:46.907Z,14.90
2018-02-14T06:53:19.358Z,21.02
2018-02-14T06:55:48.491Z,22.33
2018-02-14T06:58:17.679Z,19.37
2018-02-14T07:03:23.112Z,25.75
2018-02-14T07:05:52.274Z,20.90
2018-02-14T07:08:21.414Z,19.25
2018-02-14T07:10:51.349Z,18.92
2018-02-14T07:13:20.524Z,18.00
2018-02-14T07:15:49.696Z,17.45
2018-02-14T07:18:18.862Z,15.55
2018-02-14T07:20:47.993Z,17.42
2018-02-14T07:23:22.534Z,16.05
2018-02-14T07:25:51.739Z,16.55
2018-02-14T07:28:21.031Z,23.42
2018-02-14T07:30:50.194Z,26.52
2018-02-14T07:35:54.564Z,25.85
2018-02-14T07:38:23.767Z,20.02
2018-02-14T07:40:52.955Z,17.50
2018-02-14T07:43:22.117Z,16.73
2018-02-14T07:45:51.299Z,23.83
2018-02-14T07:48:20.468Z,19.55
2018-02-14T07:50:49.651Z,25.95
2018-02-14T07:53:18.875Z,19.50
2018-02-14T07:55:48.031Z,19.92
2018-02-14T07:58:17.193Z,17.87
2018-02-14T08:00:46.345Z,18.05
2018-02-14T08:03:15.557Z,16.50
2018-02-14T08:05:44.827Z,22.98
2018-02-14T08:08:13.995Z,20.12
2018-02-14T08:10:43.683Z,19.12
2018-02-14T08:13:13.769Z,32.83
2018-02-14T08:15:44.577Z,22.13
2018-02-14T08:18:13.799Z,18.00
2018-02-14T08:20:43.006Z,17.60
2018-02-14T08:23:12.207Z,19.48
2018-02-14T08:25:41.392Z,16.98
2018-02-14T08:28:10.533Z,20.30
2018-02-14T08:30:39.709Z,23.17
2018-02-14T08:33:08.878Z,18.25
2018-02-14T08:35:38.055Z,20.48
2018-02-14T08:38:07.221Z,18.55
2018-02-14T08:40:36.390Z,15.85
2018-02-14T08:43:05.614Z,16.08
2018-02-14T08:45:34.750Z,20.30
2018-02-14T08:48:03.939Z,17.65
2018-02-14T08:50:33.087Z,16.30
2018-02-14T08:53:02.255Z,18.42
2018-02-14T08:55:31.395Z,12.77
2018-02-14T08:58:00.583Z,17.37
2018-02-14T09:00:29.757Z,14.90
2018-02-14T09:02:58.950Z,15.50
2018-02-14T09:05:28.110Z,15.98
2018-02-14T09:07:57.278Z,12.77
2018-02-14T09:10:26.439Z,15.88
2018-02-14T09:12:55.599Z,16.42
2018-02-14T09:15:24.842Z,16.10
2018-02-14T09:17:53.963Z,12.57
2018-02-14T09:22:58.880Z,15.85
2018-02-14T09:25:28.055Z,13.93
2018-02-14T09:27:57.273Z,13.45
2018-02-14T09:30:26.535Z,11.47
2018-02-14T09:32:55.720Z,11.93
2018-02-14T09:35:24.874Z,9.80
2018-02-14T09:37:54.010Z,9.50
2018-02-14T09:40:23.207Z,9.50
2018-02-14T09:42:57.607Z,9.17
2018-02-14T09:45:26.753Z,8.77
2018-02-14T09:47:55.921Z,9.32
2018-02-14T09:50:25.093Z,9.10
2018-02-14T09:52:54.255Z,9.50
2018-02-14T09:55:23.410Z,9.73
2018-02-14T09:57:52.571Z,9.47
2018-02-14T10:00:21.728Z,9.40
2018-02-14T10:02:50.879Z,10.50
2018-02-14T10:05:20.032Z,9.70
2018-02-14T10:07:49.161Z,8.30
2018-02-14T10:10:18.323Z,9.43
2018-02-14T10:12:47.470Z,9.17
2018-02-14T10:15:16.587Z,9.00
2018-02-14T10:17:45.730Z,9.40
2018-02-14T10:20:14.850Z,10.70
2018-02-14T10:22:51.711Z,12.97
2018-02-14T10:25:20.844Z,14.33
2018-02-14T10:27:49.994Z,15.70
2018-02-14T10:30:19.147Z,14.17
2018-02-14T10:32:49.182Z,13.80
2018-02-14T10:35:18.335Z,10.27
2018-02-14T10:37:47.495Z,11.53
2018-02-14T10:40:16.672Z,12.33
2018-02-14T10:42:45.817Z,9.90
2018-02-14T10:45:14.975Z,10.17
2018-02-14T10:47:44.125Z,13.17
2018-02-14T10:50:13.327Z,13.00
2018-02-14T10:52:42.490Z,11.10
2018-02-14T10:55:11.631Z,10.97
2018-02-14T10:57:40.804Z,10.63
2018-02-14T11:00:09.974Z,10.50
2018-02-14T11:02:44.610Z,9.00
2018-02-14T11:05:19.255Z,9.10
2018-02-14T11:07:48.430Z,9.60
2018-02-14T11:10:17.603Z,9.87
2018-02-14T11:12:46.778Z,10.23
2018-02-14T11:15:15.979Z,9.57
2018-02-14T11:17:45.155Z,9.83
2018-02-14T11:20:14.300Z,10.30
2018-02-14T11:22:43.476Z,11.67
2018-02-14T11:25:12.637Z,9.80
2018-02-14T11:27:41.776Z,10.90
2018-02-14T11:30:10.971Z,10.40
2018-02-14T11:32:40.208Z,10.60
2018-02-14T11:35:09.363Z,10.27
2018-02-14T11:37:38.522Z,9.90
2018-02-14T11:40:08.570Z,9.90
2018-02-14T11:42:37.748Z,9.63
2018-02-14T11:45:06.899Z,10.30
2018-02-14T11:47:43.497Z,10.33
2018-02-14T11:52:55.167Z,10.50
2018-02-14T11:55:24.314Z,9.40
2018-02-14T11:57:55.163Z,10.73
2018-02-14T12:00:24.322Z,11.05
2018-02-14T12:02:58.769Z,11.13
2018-02-14T12:05:28.014Z,11.80
2018-02-14T12:07:57.265Z,9.40
2018-02-14T12:10:27.001Z,11.03
2018-02-14T12:15:31.913Z,11.75
2018-02-14T12:18:01.079Z,12.03
2018-02-14T12:20:30.259Z,12.07
2018-02-14T12:25:36.188Z,14.20
2018-02-14T12:28:05.322Z,14.50
2018-02-14T12:30:34.653Z,14.67
2018-02-14T12:33:05.380Z,13.87
2018-02-14T12:35:34.989Z,14.53
2018-02-14T12:40:39.418Z,14.43
2018-02-14T12:43:08.590Z,14.77
2018-02-14T12:45:38.419Z,14.55
2018-02-14T12:48:07.592Z,13.23
2018-02-14T12:50:37.632Z,13.70
2018-02-14T12:53:06.829Z,12.57
2018-02-14T12:55:36.963Z,13.20
2018-02-14T12:58:06.144Z,13.00
2018-02-14T13:00:36.217Z,13.40
2018-02-14T13:03:05.386Z,12.70
2018-02-14T13:05:36.096Z,11.80
2018-02-14T13:08:05.274Z,11.60
2018-02-14T13:10:35.100Z,13.10
2018-02-14T13:13:04.804Z,12.80
2018-02-14T13:15:33.982Z,11.67
2018-02-14T13:18:03.252Z,11.83
2018-02-14T13:20:32.507Z,11.77
2018-02-14T13:23:01.674Z,14.13
2018-02-14T13:25:30.878Z,13.03
2018-02-14T13:28:00.051Z,12.47
2018-02-14T13:33:04.725Z,9.15
2018-02-14T13:35:33.883Z,10.60
2018-02-14T13:38:03.044Z,10.47
2018-02-14T13:40:32.303Z,10.10
2018-02-14T13:43:01.471Z,10.33
2018-02-14T13:45:30.626Z,10.57
2018-02-14T13:47:59.757Z,11.30
2018-02-14T13:50:28.919Z,11.77
2018-02-14T13:52:58.044Z,11.43
2018-02-14T13:55:28.699Z,11.20
2018-02-14T13:57:58.234Z,10.70
2018-02-14T14:03:02.860Z,10.70
2018-02-14T14:05:32.066Z,10.07
2018-02-14T14:08:01.227Z,9.20
2018-02-14T14:10:30.394Z,9.50
2018-02-14T14:12:59.555Z,8.97
2018-02-14T14:15:28.699Z,10.70
2018-02-14T14:17:58.964Z,9.57
2018-02-14T14:20:28.109Z,10.00
2018-02-14T14:22:57.257Z,9.80
2018-02-14T14:25:27.112Z,8.80
2018-02-14T14:27:56.267Z,10.80
2018-02-14T14:30:26.131Z,9.83
2018-02-14T14:32:55.262Z,8.97
2018-02-14T14:35:25.682Z,9.10
2018-02-14T14:37:54.809Z,8.20
2018-02-14T14:43:00.305Z,9.30
2018-02-14T14:45:29.455Z,10.67
2018-02-14T14:47:58.613Z,11.57
2018-02-14T14:50:27.743Z,10.57
2018-02-14T14:52:57.316Z,12.43
2018-02-14T14:58:07.204Z,12.57
2018-02-14T15:00:41.294Z,12.10
2018-02-14T15:03:16.127Z,10.70
2018-02-14T15:06:00.930Z,12.10
2018-02-14T15:11:11.953Z,13.50
2018-02-14T15:13:46.043Z,12.40
2018-02-14T15:18:55.958Z,15.95
2018-02-14T15:21:30.184Z,12.73
2018-02-14T15:24:03.411Z,15.10
2018-02-14T15:26:36.574Z,14.40
2018-02-14T15:29:09.820Z,11.90
2018-02-14T15:31:43.344Z,9.80
2018-02-14T15:34:17.012Z,11.33
2018-02-14T15:36:51.569Z,13.18
2018-02-14T15:42:01.009Z,14.73
2018-02-14T15:44:33.704Z,16.12
2018-02-14T15:47:07.256Z,14.37
2018-02-14T15:49:41.481Z,15.17
2018-02-14T15:52:15.006Z,15.93
2018-02-14T15:54:49.232Z,15.40
2018-02-14T15:57:22.748Z,16.33
2018-02-14T15:59:56.200Z,15.87
2018-02-14T16:02:29.553Z,20.45
2018-02-14T16:05:03.692Z,17.93
2018-02-14T16:07:38.271Z,21.00
2018-02-14T16:10:10.968Z,23.15
2018-02-14T16:12:45.278Z,20.10
2018-02-14T16:15:19.132Z,19.03
2018-02-14T16:17:53.773Z,19.53
2018-02-14T16:20:27.552Z,21.07
2018-02-14T16:25:33.534Z,23.40
2018-02-14T16:28:02.696Z,23.95
2018-02-14T16:30:31.896Z,23.70
2018-02-14T16:33:01.063Z,25.05
2018-02-14T16:36:55.021Z,25.70
2018-02-14T16:39:24.174Z,26.40
2018-02-14T16:41:53.308Z,22.17
2018-02-14T16:44:22.495Z,24.87
2018-02-14T16:49:30.191Z,26.25
2018-02-14T16:51:59.472Z,22.87
2018-02-14T16:54:30.227Z,26.77
2018-02-14T16:56:59.708Z,27.40
2018-02-14T16:59:31.042Z,24.27
2018-02-14T17:02:00.258Z,26.27
2018-02-14T17:04:29.928Z,29.08
2018-02-14T17:06:59.317Z,24.73
2018-02-14T17:12:04.004Z,30.52
2018-02-14T17:14:33.265Z,27.50
2018-02-14T17:17:02.458Z,29.85
2018-02-14T17:19:31.619Z,30.20
2018-02-14T17:22:00.803Z,30.48
2018-02-14T17:24:29.969Z,25.90
2018-02-14T17:26:59.139Z,30.00
2018-02-14T17:32:03.579Z,32.15
2018-02-14T17:34:32.763Z,33.08
2018-02-14T17:37:01.958Z,27.80
2018-02-14T17:39:31.123Z,31.60
2018-02-14T17:42:00.914Z,32.20
2018-02-14T17:44:30.052Z,27.20
2018-02-14T17:47:04.756Z,32.05
2018-02-14T17:49:33.918Z,27.33
2018-02-14T17:52:03.116Z,33.75
2018-02-14T17:54:32.252Z,27.23
2018-02-14T17:57:01.423Z,31.00
2018-02-14T17:59:30.605Z,33.17
2018-02-14T18:04:35.016Z,31.67
2018-02-14T18:07:04.512Z,25.10
2018-02-14T18:09:33.693Z,29.42
2018-02-14T18:12:02.834Z,31.95
2018-02-14T18:14:31.998Z,25.53
2018-02-14T18:17:01.168Z,28.62
2018-02-14T18:19:30.338Z,25.17
2018-02-14T18:21:59.530Z,26.73
2018-02-14T18:24:28.700Z,28.42
2018-02-14T18:26:57.893Z,26.37
2018-02-14T18:29:27.038Z,29.05
2018-02-14T18:31:56.445Z,29.02
2018-02-14T18:34:25.700Z,24.73
2018-02-14T18:36:54.927Z,27.35
2018-02-14T18:39:24.104Z,29.12
2018-02-14T18:41:53.279Z,28.30
2018-02-14T18:44:22.470Z,24.03
2018-02-14T18:46:51.756Z,24.20
2018-02-14T18:49:26.377Z,30.98
2018-02-14T18:51:57.545Z,30.23
2018-02-14T18:54:26.952Z,23.50
2018-02-14T18:56:56.474Z,26.37
2018-02-14T18:59:25.646Z,28.05
2018-02-14T19:01:54.795Z,21.27
2018-02-14T19:04:23.979Z,30.05
2018-02-14T19:06:53.217Z,33.53
2018-02-14T19:09:22.403Z,25.53
2018-02-14T19:11:51.579Z,29.87
2018-02-14T19:14:20.812Z,25.80
2018-02-14T19:16:49.991Z,29.70
2018-02-14T19:19:20.073Z,31.27
2018-02-14T19:21:50.263Z,26.33
2018-02-14T19:24:19.431Z,30.05
2018-02-14T19:26:48.744Z,31.12
2018-02-14T19:29:17.902Z,26.37
2018-02-14T19:31:47.064Z,29.63
2018-02-14T19:34:16.922Z,33.22
2018-02-14T19:36:46.210Z,27.73
2018-02-14T19:41:50.781Z,34.95
2018-02-14T19:44:20.072Z,31.30
2018-02-14T19:46:50.358Z,35.10
2018-02-14T19:49:20.475Z,27.80
2018-02-14T19:51:52.659Z,23.17
2018-02-14T19:54:23.819Z,22.03
2018-02-14T19:56:54.027Z,21.83
2018-02-14T19:59:23.208Z,26.70
2018-02-14T20:04:32.500Z,25.60
2018-02-14T20:07:03.963Z,27.17
2018-02-14T20:09:33.317Z,22.13
2018-02-14T20:12:03.150Z,24.65
2018-02-14T20:14:32.346Z,22.37
2018-02-14T20:17:01.654Z,24.90
2018-02-14T20:19:30.972Z,22.25
2018-02-14T20:22:00.295Z,22.23
2018-02-14T20:24:29.506Z,28.83
2018-02-14T20:26:58.846Z,24.85
2018-02-14T20:29:28.089Z,23.35
2018-02-14T20:31:57.258Z,23.73
2018-02-14T20:34:26.489Z,25.48
2018-02-14T20:36:55.689Z,34.30
2018-02-14T20:39:24.891Z,30.42
2018-02-14T20:41:54.070Z,23.55
2018-02-14T20:44:23.248Z,22.42
2018-02-14T20:46:52.414Z,23.05
2018-02-14T20:49:21.870Z,21.23
2018-02-14T20:51:51.393Z,28.50
2018-02-14T20:54:20.869Z,25.02
2018-02-14T20:56:59.199Z,23.98
2018-02-14T20:59:28.635Z,22.85
2018-02-14T21:01:59.229Z,24.58
2018-02-14T21:04:29.132Z,31.17
2018-02-14T21:09:35.358Z,29.83
2018-02-14T21:12:04.843Z,28.52
2018-02-14T21:14:44.926Z,22.48
2018-02-14T21:17:14.509Z,21.42
2018-02-14T21:19:45.537Z,21.67
2018-02-14T21:22:14.848Z,22.30
2018-02-14T21:24:44.252Z,24.05
2018-02-14T21:29:51.410Z,31.50
2018-02-14T21:32:20.851Z,31.70
2018-02-14T21:34:50.421Z,25.45
2018-02-14T21:37:20.072Z,29.98
2018-02-14T21:39:49.423Z,25.27
2018-02-14T21:42:19.157Z,24.52
2018-02-14T21:44:49.844Z,23.17
2018-02-14T21:47:20.500Z,21.40
2018-02-14T21:49:49.663Z,20.02
2018-02-14T21:52:18.810Z,25.25
2018-02-14T21:57:34.081Z,31.17
2018-02-14T22:00:03.393Z,27.25
2018-02-14T22:02:32.706Z,27.17
2018-02-14T22:07:37.294Z,33.70
2018-02-14T22:10:07.853Z,31.67
2018-02-14T22:12:37.305Z,24.52
2018-02-14T22:15:06.539Z,24.87
2018-02-14T22:17:35.839Z,23.73
2018-02-14T22:20:05.480Z,24.50
2018-02-14T22:22:34.767Z,24.65
2018-02-14T22:25:04.199Z,22.40
2018-02-14T22:27:33.434Z,26.53
2018-02-14T22:30:03.095Z,20.58
2018-02-14T22:32:32.240Z,19.48
2018-02-14T22:37:36.700Z,26.87
2018-02-14T22:40:16.188Z,31.87
2018-02-14T22:42:46.136Z,19.70
2018-02-14T22:45:15.719Z,20.27
2018-02-14T22:47:45.207Z,19.55
2018-02-14T22:50:14.639Z,18.52
2018-02-14T22:52:44.074Z,25.47
2018-02-14T22:55:14.642Z,29.73
2018-02-14T22:57:44.394Z,22.50
2018-02-14T23:00:24.356Z,19.00
2018-02-14T23:05:30.754Z,24.52
2018-02-14T23:08:00.083Z,26.52
2018-02-14T23:10:29.283Z,22.75
2018-02-14T23:12:58.944Z,17.80
2018-02-14T23:15:28.260Z,19.45
2018-02-14T23:17:57.554Z,17.90
2018-02-14T23:20:26.805Z,19.50
2018-02-14T23:22:56.011Z,18.48
2018-02-14T23:25:25.267Z,17.75
2018-02-14T23:27:54.475Z,16.02
2018-02-14T23:30:27.486Z,17.50
2018-02-14T23:35:34.482Z,25.95
2018-02-14T23:40:38.980Z,26.15
2018-02-14T23:43:08.146Z,21.73
2018-02-14T23:45:37.279Z,19.67
2018-02-14T23:48:06.426Z,18.80
2018-02-14T23:50:35.574Z,26.08
2018-02-14T23:53:04.745Z,22.85
2018-02-14T23:55:34.798Z,27.40
2018-02-14T23:58:03.955Z,21.95
